Time;durP1;ratioP1;P1;durP2;ratioP2;P2;SDS_P1;SDS_P2;PMS_P1;PMS_P2;Temp;Humidity;BMP_temperature;BMP_pressure;BME280_temperature;BME280_humidity;BME280_pressure;Samples;Min_cycle;Max_cycle;Signal;HPM_P1;HPM_P2
2021/12/07 00:01:33;;;;;;;1999.90;999.90;;;1.80;99.90;;;;;;5052515;28;20450;-70
2021/12/07 00:04:01;;;;;;;1999.90;999.90;;;1.80;99.90;;;;;;5051523;28;20500;-69
2021/12/07 00:06:28;;;;;;;1999.90;999.90;;;1.90;99.90;;;;;;5051736;28;20443;-69
2021/12/07 00:08:56;;;;;;;1999.90;999.90;;;1.90;99.90;;;;;;5052396;28;21035;-69
2021/12/07 00:11:25;;;;;;;1999.90;999.90;;;1.90;99.90;;;;;;5052055;28;20458;-69
2021/12/07 00:13:52;;;;;;;1999.90;999.90;;;1.90;99.90;;;;;;5049477;28;20447;-72
2021/12/07 00:16:19;;;;;;;1999.90;999.90;;;1.90;99.90;;;;;;5047590;28;20486;-70
2021/12/07 00:18:46;;;;;;;1999.90;999.90;;;1.90;99.90;;;;;;5052419;28;20463;-69
2021/12/07 00:21:17;;;;;;;1999.90;999.90;;;1.80;99.90;;;;;;5051804;28;20454;-70
2021/12/07 00:23:45;;;;;;;1999.90;999.90;;;1.90;99.90;;;;;;5037074;28;20509;-70
2021/12/07 00:26:12;;;;;;;1999.90;999.90;;;1.80;99.90;;;;;;5045522;28;20454;-69
2021/12/07 00:28:39;;;;;;;1999.90;999.90;;;1.80;99.90;;;;;;5052434;28;20478;-72
2021/12/07 00:31:12;;;;;;;1999.90;999.90;;;1.80;99.90;;;;;;5052079;28;20451;-70
2021/12/07 00:33:46;;;;;;;1999.90;999.90;;;1.90;99.90;;;;;;5037920;28;20448;-70
2021/12/07 00:36:14;;;;;;;1999.90;999.90;;;1.90;99.90;;;;;;5044789;28;20466;-70
2021/12/07 00:38:41;;;;;;;1999.90;999.90;;;1.90;99.90;;;;;;5052149;28;20459;-70
2021/12/07 00:41:08;;;;;;;1999.90;999.90;;;1.90;99.90;;;;;;5051023;28;20508;-70
2021/12/07 00:43:35;;;;;;;1999.90;999.90;;;1.90;99.90;;;;;;5052167;28;20446;-69
2021/12/07 00:46:03;;;;;;;1999.90;999.90;;;2.00;99.90;;;;;;5045363;28;20501;-69
2021/12/07 00:48:31;;;;;;;1999.90;999.90;;;2.00;99.90;;;;;;5051819;28;20466;-70
2021/12/07 00:50:59;;;;;;;1999.90;999.90;;;1.90;99.90;;;;;;5051184;28;21004;-70
2021/12/07 00:53:28;;;;;;;1999.90;999.90;;;1.90;99.90;;;;;;5051257;28;20442;-69
2021/12/07 00:55:57;;;;;;;1999.90;999.90;;;1.90;99.90;;;;;;5051389;28;20477;-70
2021/12/07 00:58:25;;;;;;;1999.90;999.90;;;1.90;99.90;;;;;;5031773;22;20592;-68
2021/12/07 01:00:55;;;;;;;1999.90;999.90;;;1.90;99.90;;;;;;4995762;28;20838;-70
2021/12/07 01:03:23;;;;;;;1999.90;999.90;;;1.80;99.90;;;;;;4997230;28;20470;-69
2021/12/07 01:05:52;;;;;;;1999.90;999.90;;;1.90;99.90;;;;;;4996887;28;20904;-69
2021/12/07 01:24:48;;;;;;;1999.90;999.90;;;1.70;99.90;;;;;;5000102;28;20456;-70
2021/12/07 01:27:19;;;;;;;1999.90;999.90;;;1.70;99.90;;;;;;5000565;28;20441;-69
2021/12/07 01:30:02;;;;;;;1999.90;999.90;;;1.80;99.90;;;;;;5000724;28;20502;-70
2021/12/07 01:32:46;;;;;;;1999.90;999.90;;;1.80;99.90;;;;;;4997737;28;20445;-69
2021/12/07 01:35:44;;;;;;;1999.90;999.90;;;1.80;99.90;;;;;;4981777;28;20480;-71
2021/12/07 01:38:31;;;;;;;1999.90;999.90;;;1.90;99.90;;;;;;4980764;28;20489;-70
2021/12/07 01:46:50;;;;;;;1999.90;999.90;;;1.90;99.90;;;;;;4986115;28;20422;-71
2021/12/07 01:52:39;;;;;;;1999.90;999.90;;;1.90;99.90;;;;;;4974146;28;20525;-71
2021/12/07 01:59:31;;;;;;;1999.90;999.90;;;1.80;99.90;;;;;;4974037;28;20552;-69
2021/12/07 02:00:48;;;;;;;1999.90;999.90;;;1.80;99.90;;;;;;4994930;28;20449;-70
2021/12/07 02:03:15;;;;;;;1999.90;999.90;;;1.80;99.90;;;;;;5000154;28;20448;-69
2021/12/07 02:05:42;;;;;;;1999.90;999.90;;;1.80;99.90;;;;;;4998334;28;21240;-70
2021/12/07 02:08:09;;;;;;;1999.90;999.90;;;1.80;99.90;;;;;;4998118;28;20473;-69
2021/12/07 02:10:36;;;;;;;1999.90;999.90;;;1.80;99.90;;;;;;4998551;28;20456;-69
2021/12/07 02:13:17;;;;;;;1999.90;999.90;;;1.80;99.90;;;;;;4998292;28;20449;-69
2021/12/07 02:15:46;;;;;;;1999.90;999.90;;;1.80;99.90;;;;;;4998726;28;20437;-70
2021/12/07 02:18:13;;;;;;;1999.90;999.90;;;1.80;99.90;;;;;;4999292;28;20543;-70
2021/12/07 02:20:40;;;;;;;1999.90;999.90;;;1.80;99.90;;;;;;4994354;28;20481;-70
2021/12/07 02:23:08;;;;;;;1999.90;999.90;;;1.80;99.90;;;;;;4985896;28;20506;-69
2021/12/07 02:25:35;;;;;;;1999.90;999.90;;;1.80;99.90;;;;;;4998442;28;20453;-71
2021/12/07 02:28:05;;;;;;;1999.90;999.90;;;1.80;99.90;;;;;;4998098;28;20469;-70
2021/12/07 02:30:32;;;;;;;1999.90;999.90;;;1.70;99.90;;;;;;4997570;28;20905;-70
2021/12/07 02:32:59;;;;;;;1999.90;999.90;;;2.10;99.90;;;;;;4990275;28;20513;-69
2021/12/07 02:35:28;;;;;;;1999.90;999.90;;;1.70;99.90;;;;;;4979466;28;20458;-70
2021/12/07 02:37:57;;;;;;;1999.90;999.90;;;1.70;99.90;;;;;;4996226;28;20497;-69
2021/12/07 02:40:26;;;;;;;1999.90;999.90;;;1.70;99.90;;;;;;4999358;28;20448;-71
2021/12/07 02:42:53;;;;;;;1999.90;999.90;;;1.70;99.90;;;;;;4999602;28;20444;-70
2021/12/07 02:45:23;;;;;;;1999.90;999.90;;;1.70;99.90;;;;;;4998951;28;20449;-69
2021/12/07 02:47:50;;;;;;;1999.90;999.90;;;1.70;99.90;;;;;;4998882;28;20456;-70
2021/12/07 02:50:17;;;;;;;1999.90;999.90;;;1.70;99.90;;;;;;4998343;28;20802;-70
2021/12/07 02:52:44;;;;;;;1999.90;999.90;;;1.70;99.90;;;;;;4999146;28;20449;-69
2021/12/07 02:55:12;;;;;;;1999.90;999.90;;;1.70;99.90;;;;;;4988458;28;20519;-70
2021/12/07 02:57:42;;;;;;;1999.90;999.90;;;1.70;99.90;;;;;;4998936;28;20493;-70
2021/12/07 03:00:17;;;;;;;1999.90;999.90;;;1.70;99.90;;;;;;4998774;28;20533;-69
2021/12/07 03:02:48;;;;;;;1999.90;999.90;;;1.60;99.90;;;;;;4999345;28;20453;-70
2021/12/07 03:05:25;;;;;;;1999.90;999.90;;;1.60;99.90;;;;;;4991929;28;20457;-70
2021/12/07 03:08:13;;;;;;;1999.90;999.90;;;1.70;99.90;;;;;;4999139;28;20472;-69
2021/12/07 03:27:09;;;;;;;1999.90;999.90;;;2.00;99.90;;;;;;4997482;28;20456;-69
2021/12/07 03:29:38;;;;;;;1999.90;999.90;;;2.00;99.90;;;;;;4998035;28;20511;-70
2021/12/07 03:32:05;;;;;;;1999.90;999.90;;;2.00;99.90;;;;;;4997982;28;20449;-70
2021/12/07 03:34:32;;;;;;;1999.90;999.90;;;2.10;99.90;;;;;;4997370;28;20449;-70
2021/12/07 03:36:59;;;;;;;1999.90;999.90;;;2.10;99.90;;;;;;4996627;28;20503;-70
2021/12/07 03:39:25;;;;;;;1999.90;999.90;;;2.20;99.90;;;;;;4997217;28;20982;-70
2021/12/07 03:41:52;;;;;;;1999.90;999.90;;;2.20;99.90;;;;;;4996532;28;20954;-70
2021/12/07 03:44:19;;;;;;;1999.90;999.90;;;2.10;99.90;;;;;;5000646;28;20445;-70
2021/12/07 03:46:47;;;;;;;1999.90;999.90;;;2.20;99.90;;;;;;4996654;28;20453;-69
2021/12/07 03:49:14;;;;;;;1999.90;999.90;;;2.20;99.90;;;;;;4997802;28;20472;-70
2021/12/07 03:51:41;;;;;;;1999.90;999.90;;;2.20;99.90;;;;;;4997412;28;20515;-69
2021/12/07 03:54:08;;;;;;;1999.90;999.90;;;2.10;99.90;;;;;;4997457;28;20464;-70
2021/12/07 03:56:34;;;;;;;1999.90;999.90;;;2.10;99.90;;;;;;4992186;28;20477;-70
2021/12/07 03:59:01;;;;;;;1999.90;999.90;;;2.10;99.90;;;;;;4984697;28;20539;-70
2021/12/07 04:01:28;;;;;;;1999.90;999.90;;;2.10;99.90;;;;;;4996445;28;21142;-70
2021/12/07 04:03:56;;;;;;;1999.90;999.90;;;2.10;99.90;;;;;;4997428;28;20453;-70
2021/12/07 04:06:23;;;;;;;1999.90;999.90;;;2.10;99.90;;;;;;4994573;28;20449;-70
2021/12/07 04:08:50;;;;;;;1999.90;999.90;;;2.10;99.90;;;;;;4994463;28;20465;-70
2021/12/07 04:11:18;;;;;;;1999.90;999.90;;;2.20;99.90;;;;;;4996598;28;20797;-70
2021/12/07 04:13:45;;;;;;;1999.90;999.90;;;2.20;99.90;;;;;;4996912;28;20445;-69
2021/12/07 04:16:13;;;;;;;1999.90;999.90;;;2.20;99.90;;;;;;4996100;28;20463;-70
2021/12/07 04:18:40;;;;;;;1999.90;999.90;;;2.20;99.90;;;;;;4990658;28;20489;-70
2021/12/07 04:21:08;;;;;;;1999.90;999.90;;;2.20;99.90;;;;;;4995709;28;20948;-69
2021/12/07 04:23:35;;;;;;;1999.90;999.90;;;2.20;99.90;;;;;;4997203;28;20482;-69
2021/12/07 04:26:04;;;;;;;1999.90;999.90;;;2.20;99.90;;;;;;4996558;28;20449;-69
2021/12/07 04:28:31;;;;;;;1999.90;999.90;;;2.20;99.90;;;;;;4988975;28;20988;-69
2021/12/07 04:30:58;;;;;;;1999.90;999.90;;;2.20;99.90;;;;;;4995114;28;20453;-70
2021/12/07 04:33:25;;;;;;;1999.90;999.90;;;2.20;99.90;;;;;;4994919;28;20457;-69
2021/12/07 04:35:52;;;;;;;1999.90;999.90;;;2.20;99.90;;;;;;4995613;28;20453;-71
2021/12/07 04:38:20;;;;;;;1999.90;999.90;;;2.10;99.90;;;;;;4996393;28;21067;-70
2021/12/07 04:40:47;;;;;;;1999.90;999.90;;;2.10;99.90;;;;;;4996287;28;20456;-70
2021/12/07 04:43:14;;;;;;;1999.90;999.90;;;2.10;99.90;;;;;;4996156;28;20507;-69
2021/12/07 04:45:54;;;;;;;1999.90;999.90;;;2.40;99.90;;;;;;4994956;28;20467;-70
2021/12/07 04:48:57;;;;;;;1999.90;999.90;;;2.10;99.90;;;;;;4995139;28;20472;-70
2021/12/07 04:59:39;;;;;;;1999.90;999.90;;;2.30;99.90;;;;;;4996032;28;20515;-70
2021/12/07 05:02:06;;;;;;;1999.90;999.90;;;2.30;99.90;;;;;;4996341;28;20448;-70
2021/12/07 05:04:35;;;;;;;1999.90;999.90;;;2.30;99.90;;;;;;4996673;28;20544;-68
2021/12/07 05:07:08;;;;;;;1999.90;999.90;;;2.40;99.90;;;;;;4995703;28;20452;-70
2021/12/07 05:10:05;;;;;;;1999.90;999.90;;;2.40;99.90;;;;;;4995466;28;20504;-69
2021/12/07 05:12:40;;;;;;;1999.90;999.90;;;2.50;99.90;;;;;;4994770;28;20445;-69
2021/12/07 05:15:17;;;;;;;1999.90;999.90;;;2.50;99.90;;;;;;4996857;28;20511;-70
2021/12/07 05:18:03;;;;;;;1999.90;999.90;;;2.60;99.90;;;;;;4985469;28;20493;-70
2021/12/07 05:34:51;;;;;;;1999.90;999.90;;;2.60;99.90;;;;;;4995688;28;20436;-70
2021/12/07 05:40:06;;;;;;;1999.90;999.90;;;2.50;99.90;;;;;;4987902;28;20433;-69
2021/12/07 05:42:35;;;;;;;1999.90;999.90;;;2.50;99.90;;;;;;4977504;28;20446;-70
2021/12/07 05:45:03;;;;;;;1999.90;999.90;;;2.40;99.90;;;;;;4996681;28;20453;-70
2021/12/07 05:47:30;;;;;;;1999.90;999.90;;;2.40;99.90;;;;;;4995783;28;21058;-69
2021/12/07 05:49:56;;;;;;;1999.90;999.90;;;2.40;99.90;;;;;;4986310;28;20493;-69
2021/12/07 05:52:23;;;;;;;1999.90;999.90;;;2.50;99.90;;;;;;4977445;28;20454;-70
2021/12/07 05:54:50;;;;;;;1999.90;999.90;;;2.50;99.90;;;;;;4993656;28;20487;-70
2021/12/07 05:57:17;;;;;;;1999.90;999.90;;;2.50;99.90;;;;;;4995888;28;20449;-69
2021/12/07 05:59:45;;;;;;;1999.90;999.90;;;2.50;99.90;;;;;;4988604;28;20442;-70
2021/12/07 06:02:11;;;;;;;1999.90;999.90;;;2.50;99.90;;;;;;4977442;28;20441;-69
2021/12/07 06:04:38;;;;;;;1999.90;999.90;;;2.50;99.90;;;;;;4997333;28;20495;-69
2021/12/07 06:07:05;;;;;;;1999.90;999.90;;;2.50;99.90;;;;;;5000100;28;20441;-69
2021/12/07 06:09:32;;;;;;;1999.90;999.90;;;2.40;99.90;;;;;;4998584;28;20457;-69
2021/12/07 06:11:59;;;;;;;1999.90;999.90;;;2.50;99.90;;;;;;4999397;28;20475;-70
2021/12/07 06:14:31;;;;;;;1999.90;999.90;;;2.40;99.90;;;;;;4999111;28;20452;-69
2021/12/07 06:16:59;;;;;;;1999.90;999.90;;;2.40;99.90;;;;;;4999652;28;20441;-70
2021/12/07 06:19:26;;;;;;;1999.90;999.90;;;2.40;99.90;;;;;;4997819;28;20488;-70
2021/12/07 06:21:53;;;;;;;1999.90;999.90;;;2.40;99.90;;;;;;4998696;28;20444;-69
2021/12/07 06:24:19;;;;;;;1999.90;999.90;;;2.40;99.90;;;;;;4998377;28;20957;-70
2021/12/07 06:26:46;;;;;;;1999.90;999.90;;;2.40;99.90;;;;;;4998718;28;20452;-71
2021/12/07 06:29:13;;;;;;;1999.90;999.90;;;2.30;99.90;;;;;;4996619;28;20465;-70
2021/12/07 06:31:40;;;;;;;1999.90;999.90;;;2.30;99.90;;;;;;4979503;28;20500;-67
2021/12/07 06:34:10;;;;;;;1999.90;999.90;;;2.40;99.90;;;;;;4995076;28;20445;-68
2021/12/07 06:36:37;;;;;;;1999.90;999.90;;;2.40;99.90;;;;;;4999023;28;20827;-68
2021/12/07 06:39:04;;;;;;;1999.90;999.90;;;2.40;99.90;;;;;;4997575;28;20841;-67
2021/12/07 06:41:31;;;;;;;1999.90;999.90;;;2.50;99.90;;;;;;4979841;28;20516;-69
2021/12/07 06:43:58;;;;;;;1999.90;999.90;;;2.50;99.90;;;;;;4993434;28;20865;-69
2021/12/07 06:46:24;;;;;;;1999.90;999.90;;;2.60;99.90;;;;;;4999369;28;20468;-70
2021/12/07 06:48:51;;;;;;;1999.90;999.90;;;2.70;99.90;;;;;;4999667;28;20531;-70
2021/12/07 06:51:19;;;;;;;1999.90;999.90;;;2.70;99.90;;;;;;4979980;28;21013;-70
2021/12/07 06:53:46;;;;;;;1999.90;999.90;;;2.70;99.90;;;;;;4990007;28;20507;-70
2021/12/07 06:56:13;;;;;;;1999.90;999.90;;;2.80;99.90;;;;;;4999460;28;20445;-70
2021/12/07 06:58:40;;;;;;;1999.90;999.90;;;2.80;99.90;;;;;;5029097;22;20498;-69
2021/12/07 07:01:11;;;;;;;1999.90;999.90;;;2.80;99.90;;;;;;5026181;28;20939;-69
2021/12/07 07:03:37;;;;;;;1999.90;999.90;;;2.80;99.90;;;;;;5022598;28;20435;-69
2021/12/07 07:06:04;;;;;;;1999.90;999.90;;;2.80;99.90;;;;;;5034245;28;20447;-69
2021/12/07 07:08:33;;;;;;;1999.90;999.90;;;2.80;99.90;;;;;;5033406;28;20467;-69
2021/12/07 07:11:00;;;;;;;1999.90;999.90;;;2.80;99.90;;;;;;5017373;28;20494;-69
2021/12/07 07:13:27;;;;;;;1999.90;999.90;;;2.80;99.90;;;;;;5016239;28;20478;-69
2021/12/07 07:15:53;;;;;;;1999.90;999.90;;;2.90;99.90;;;;;;5031468;28;20534;-69
2021/12/07 07:18:20;;;;;;;1999.90;999.90;;;2.80;99.90;;;;;;5031060;28;20902;-69
2021/12/07 07:20:47;;;;;;;1999.90;999.90;;;2.80;99.90;;;;;;5031942;28;20455;-69
2021/12/07 07:23:13;;;;;;;1999.90;999.90;;;2.90;99.90;;;;;;5032631;28;20477;-70
2021/12/07 07:25:41;;;;;;;1999.90;999.90;;;2.90;99.90;;;;;;5032959;28;20451;-70
2021/12/07 07:28:08;;;;;;;1999.90;999.90;;;2.90;99.90;;;;;;5032896;28;20443;-68
2021/12/07 07:30:35;;;;;;;1999.90;999.90;;;2.90;99.90;;;;;;5029393;28;20451;-69
2021/12/07 07:33:02;;;;;;;1999.90;999.90;;;2.90;99.90;;;;;;5033717;28;20438;-69
2021/12/07 07:35:29;;;;;;;1999.90;999.90;;;3.00;99.90;;;;;;5032480;28;20947;-69
2021/12/07 07:37:56;;;;;;;1999.90;999.90;;;3.00;99.90;;;;;;5032517;28;20466;-69
2021/12/07 07:40:23;;;;;;;1999.90;999.90;;;2.90;99.90;;;;;;5022510;28;20471;-69
2021/12/07 07:42:52;;;;;;;1999.90;999.90;;;2.90;99.90;;;;;;5014038;28;20944;-69
2021/12/07 07:45:18;;;;;;;1999.90;999.90;;;2.90;99.90;;;;;;5041556;28;21223;-69
2021/12/07 07:47:45;;;;;;;1999.90;999.90;;;2.90;99.90;;;;;;5019725;28;20453;-69
2021/12/07 07:50:14;;;;;;;1999.90;999.90;;;2.90;99.90;;;;;;5030813;28;21056;-69
2021/12/07 07:52:41;;;;;;;1999.90;999.90;;;3.10;99.90;;;;;;5033097;28;20505;-69
2021/12/07 07:55:10;;;;;;;1999.90;999.90;;;3.10;99.90;;;;;;5032421;28;20501;-69
2021/12/07 07:57:37;;;;;;;1999.90;999.90;;;3.20;99.90;;;;;;5032675;28;20447;-69
2021/12/07 08:00:07;;;;;;;1999.90;999.90;;;3.20;99.90;;;;;;5021867;28;20483;-69
2021/12/07 08:02:34;;;;;;;1999.90;999.90;;;3.30;99.90;;;;;;5032789;28;21004;-69
2021/12/07 08:05:00;;;;;;;1999.90;999.90;;;3.30;99.90;;;;;;5032782;28;20810;-69
2021/12/07 08:07:27;;;;;;;1999.90;999.90;;;3.30;99.90;;;;;;5032592;28;20517;-69
2021/12/07 08:09:54;;;;;;;1999.90;999.90;;;3.30;99.90;;;;;;5017783;28;20476;-68
2021/12/07 08:12:21;;;;;;;1999.90;999.90;;;3.30;99.90;;;;;;5012690;28;21112;-69
2021/12/07 08:14:47;;;;;;;1999.90;999.90;;;3.30;99.90;;;;;;5012989;28;20448;-69
2021/12/07 08:17:15;;;;;;;1999.90;999.90;;;3.40;99.90;;;;;;5012836;28;20440;-69
2021/12/07 08:19:42;;;;;;;1999.90;999.90;;;3.40;99.90;;;;;;5024349;28;20529;-69
2021/12/07 08:22:09;;;;;;;1999.90;999.90;;;3.40;99.90;;;;;;5015200;28;20645;-69
2021/12/07 08:24:35;;;;;;;1999.90;999.90;;;3.50;99.90;;;;;;5012819;28;20444;-69
2021/12/07 08:27:02;;;;;;;1999.90;999.90;;;3.50;99.90;;;;;;5015090;28;20468;-69
2021/12/07 08:29:28;;;;;;;1999.90;999.90;;;3.50;99.90;;;;;;5026114;28;20528;-69
2021/12/07 08:31:55;;;;;;;1999.90;999.90;;;3.60;99.90;;;;;;5030829;28;20441;-69
2021/12/07 08:34:23;;;;;;;1999.90;999.90;;;3.70;99.90;;;;;;5042560;28;20509;-69
2021/12/07 08:36:50;;;;;;;1999.90;999.90;;;3.80;99.90;;;;;;5031841;28;20439;-69
2021/12/07 08:39:17;;;;;;;1999.90;999.90;;;3.80;99.90;;;;;;5031302;28;20483;-69
2021/12/07 08:41:43;;;;;;;1999.90;999.90;;;3.60;99.90;;;;;;5031567;28;20455;-69
2021/12/07 08:44:10;;;;;;;1999.90;999.90;;;3.50;99.90;;;;;;5030327;28;20493;-69
2021/12/07 08:46:38;;;;;;;1999.90;999.90;;;3.50;99.90;;;;;;5029872;28;20459;-71
2021/12/07 08:49:06;;;;;;;1999.90;999.90;;;3.40;99.90;;;;;;5031257;28;20459;-70
2021/12/07 08:51:34;;;;;;;1999.90;999.90;;;3.40;99.90;;;;;;5031994;28;20443;-69
2021/12/07 08:54:17;;;;;;;1999.90;999.90;;;3.40;99.90;;;;;;5029705;28;20509;-69
2021/12/07 08:59:40;;;;;;;1999.90;999.90;;;3.40;99.90;;;;;;5029806;28;20548;-69
2021/12/07 09:02:06;;;;;;;1999.90;999.90;;;3.40;99.90;;;;;;5031725;28;20885;-70
2021/12/07 09:04:33;;;;;;;1999.90;999.90;;;3.60;99.90;;;;;;5024218;28;20956;-68
2021/12/07 09:07:01;;;;;;;1999.90;999.90;;;3.80;99.90;;;;;;5018401;28;20455;-69
2021/12/07 09:09:28;;;;;;;1999.90;999.90;;;4.00;99.90;;;;;;5020925;28;20515;-69
2021/12/07 09:11:56;;;;;;;1999.90;999.90;;;4.20;99.90;;;;;;5032216;28;20539;-69
2021/12/07 09:14:23;;;;;;;1999.90;999.90;;;4.40;99.90;;;;;;5028944;28;20444;-69
2021/12/07 09:16:50;;;;;;;1999.90;999.90;;;4.50;99.90;;;;;;5033960;28;20451;-70
2021/12/07 09:19:18;;;;;;;1999.90;999.90;;;4.70;99.90;;;;;;5033272;28;20905;-70
2021/12/07 09:21:45;;;;;;;1999.90;999.90;;;4.70;99.90;;;;;;5033569;28;20447;-69
2021/12/07 09:24:13;;;;;;;1999.90;999.90;;;4.80;99.90;;;;;;5031545;28;20451;-70
2021/12/07 09:26:39;;;;;;;1999.90;999.90;;;4.80;99.90;;;;;;5014902;28;20502;-69
2021/12/07 09:29:06;;;;;;;1999.90;999.90;;;4.90;99.90;;;;;;5014287;28;20518;-70
2021/12/07 09:31:34;;;;;;;1999.90;999.90;;;5.00;99.90;;;;;;5014506;28;20452;-70
2021/12/07 09:34:02;;;;;;;1999.90;999.90;;;4.90;99.90;;;;;;5014785;28;20443;-70
2021/12/07 09:36:28;;;;;;;1999.90;999.90;;;4.80;99.90;;;;;;5034114;28;20451;-69
2021/12/07 09:38:56;;;;;;;1999.90;999.90;;;4.90;99.90;;;;;;5035896;28;20482;-71
2021/12/07 09:41:24;;;;;;;1999.90;999.90;;;5.20;99.90;;;;;;5038511;28;20443;-69
2021/12/07 09:43:52;;;;;;;1999.90;999.90;;;5.30;99.90;;;;;;5037802;28;20447;-69
2021/12/07 09:46:20;;;;;;;1999.90;999.90;;;5.30;99.90;;;;;;5028025;28;20809;-69
2021/12/07 09:48:48;;;;;;;1999.90;999.90;;;5.30;99.90;;;;;;5036887;28;20532;-69
2021/12/07 09:51:18;;;;;;;1999.90;999.90;;;5.20;99.90;;;;;;5034857;28;20451;-71
2021/12/07 09:53:45;;;;;;;1999.90;999.90;;;5.20;99.90;;;;;;5034196;28;20443;-72
2021/12/07 09:56:11;;;;;;;1999.90;999.90;;;5.10;99.90;;;;;;5026682;28;20871;-71
2021/12/07 09:58:40;;;;;;;1999.90;999.90;;;5.10;99.90;;;;;;5023222;28;20538;-72
2021/12/07 10:01:09;;;;;;;1999.90;999.90;;;5.10;99.90;;;;;;5034596;28;20439;-71
2021/12/07 10:03:36;;;;;;;1999.90;999.90;;;5.10;99.90;;;;;;5034834;28;20455;-72
2021/12/07 10:06:03;;;;;;;1999.90;999.90;;;5.10;99.90;;;;;;5018513;28;20482;-73
2021/12/07 10:08:30;;;;;;;1999.90;999.90;;;5.20;99.90;;;;;;5024625;28;20466;-71
2021/12/07 10:10:59;;;;;;;1999.90;999.90;;;5.40;99.90;;;;;;5034721;28;20443;-71
2021/12/07 10:13:28;;;;;;;1999.90;999.90;;;5.40;99.90;;;;;;5034246;28;20505;-71
2021/12/07 10:15:57;;;;;;;1999.90;999.90;;;5.50;99.90;;;;;;5033822;28;20455;-72
2021/12/07 10:18:26;;;;;;;1999.90;999.90;;;5.40;99.90;;;;;;5034500;28;20455;-72
2021/12/07 10:20:55;;;;;;;1999.90;999.90;;;5.60;99.90;;;;;;5034577;28;20486;-71
2021/12/07 10:23:32;;;;;;;1999.90;999.90;;;5.60;99.90;;;;;;5034402;28;20447;-72
2021/12/07 10:26:04;;;;;;;1999.90;999.90;;;5.60;99.90;;;;;;5033805;28;20875;-72
2021/12/07 10:28:35;;;;;;;1999.90;999.90;;;5.60;99.90;;;;;;5033516;28;20517;-71
2021/12/07 10:31:15;;;;;;;1999.90;999.90;;;5.60;99.90;;;;;;5034488;28;20455;-71
2021/12/07 10:33:44;;;;;;;1999.90;999.90;;;5.50;99.90;;;;;;5033760;28;20441;-71
2021/12/07 10:36:14;;;;;;;1999.90;999.90;;;5.40;99.90;;;;;;5020619;28;20456;-67
2021/12/07 10:38:42;;;;;;;1999.90;999.90;;;5.30;99.90;;;;;;5027095;28;20467;-69
2021/12/07 10:41:13;;;;;;;1999.90;999.90;;;5.30;99.90;;;;;;5039424;28;20454;-69
2021/12/07 10:43:44;;;;;;;1999.90;999.90;;;5.30;99.90;;;;;;5039652;28;20459;-69
2021/12/07 10:46:37;;;;;;;1999.90;999.90;;;5.40;99.90;;;;;;5029953;28;20508;-70
2021/12/07 10:49:17;;;;;;;1999.90;999.90;;;5.30;99.90;;;;;;5036868;28;20460;-69
2021/12/07 10:52:07;;;;;;;1999.90;999.90;;;5.30;99.90;;;;;;5033269;28;20447;-69
2021/12/07 10:54:39;;;;;;;1999.90;999.90;;;5.30;99.90;;;;;;5034420;28;20447;-69
2021/12/07 10:57:08;;;;;;;1999.90;999.90;;;5.10;99.90;;;;;;5035441;28;20474;-70
2021/12/07 10:59:36;;;;;;;1999.90;999.90;;;5.10;99.90;;;;;;5035244;28;21177;-70
2021/12/07 11:02:15;;;;;;;1999.90;999.90;;;5.10;99.90;;;;;;5034098;28;20820;-69
2021/12/07 11:04:42;;;;;;;1999.90;999.90;;;5.10;99.90;;;;;;5018230;28;20444;-71
2021/12/07 11:07:17;;;;;;;1999.90;999.90;;;5.00;99.90;;;;;;5028366;28;20458;-69
2021/12/07 11:09:59;;;;;;;1999.90;999.90;;;4.90;99.90;;;;;;5035321;28;20850;-70
2021/12/07 11:12:30;;;;;;;1999.90;999.90;;;5.00;99.90;;;;;;5033821;28;20498;-70
2021/12/07 11:15:00;;;;;;;1999.90;999.90;;;5.10;99.90;;;;;;5033458;28;20490;-70
2021/12/07 11:17:31;;;;;;;1999.90;999.90;;;5.00;99.90;;;;;;5033320;28;20454;-70
2021/12/07 11:19:59;;;;;;;1999.90;999.90;;;5.00;99.90;;;;;;5034057;28;20487;-70
2021/12/07 11:22:28;;;;;;;1999.90;999.90;;;5.10;99.90;;;;;;5034102;28;20951;-70
2021/12/07 11:24:56;;;;;;;1999.90;999.90;;;5.20;99.90;;;;;;5033238;28;20963;-70
2021/12/07 11:30:11;;;;;;;1999.90;999.90;;;5.20;99.90;;;;;;5034821;28;20447;-70
2021/12/07 11:32:43;;;;;;;1999.90;999.90;;;5.20;99.90;;;;;;5034425;28;20860;-70
2021/12/07 11:35:14;;;;;;;1999.90;999.90;;;5.20;99.90;;;;;;5034073;28;21037;-71
2021/12/07 11:37:41;;;;;;;1999.90;999.90;;;5.20;99.90;;;;;;5033835;28;20462;-70
2021/12/07 11:40:10;;;;;;;1999.90;999.90;;;5.10;99.90;;;;;;5034035;28;20557;-71
2021/12/07 11:42:41;;;;;;;1999.90;999.90;;;5.10;99.90;;;;;;5034008;28;20459;-70
2021/12/07 11:45:11;;;;;;;1999.90;999.90;;;5.10;99.90;;;;;;5033790;28;20455;-70
2021/12/07 11:47:42;;;;;;;1999.90;999.90;;;5.10;99.90;;;;;;5034241;28;20443;-70
2021/12/07 11:50:17;;;;;;;1999.90;999.90;;;5.10;99.90;;;;;;5033982;28;20525;-71
2021/12/07 11:52:44;;;;;;;1999.90;999.90;;;5.20;99.90;;;;;;5033946;28;20454;-70
2021/12/07 11:55:11;;;;;;;1999.90;999.90;;;5.10;99.90;;;;;;5033160;28;20954;-70
2021/12/07 11:57:39;;;;;;;1999.90;999.90;;;5.20;99.90;;;;;;5033599;28;20971;-70
2021/12/07 12:00:07;;;;;;;1999.90;999.90;;;5.10;99.90;;;;;;5033552;28;20487;-70
2021/12/07 12:02:34;;;;;;;1999.90;999.90;;;5.10;99.90;;;;;;5032818;28;20497;-70
2021/12/07 12:05:02;;;;;;;1999.90;999.90;;;5.00;99.90;;;;;;5031225;28;20482;-69
2021/12/07 12:07:29;;;;;;;1999.90;999.90;;;5.10;99.90;;;;;;5032559;28;20452;-71
2021/12/07 12:09:56;;;;;;;1999.90;999.90;;;5.10;99.90;;;;;;5033297;28;20475;-70
2021/12/07 12:12:30;;;;;;;1999.90;999.90;;;5.10;99.90;;;;;;5034130;28;20862;-71
2021/12/07 12:15:10;;;;;;;1999.90;999.90;;;5.20;99.90;;;;;;5033530;28;20505;-70
2021/12/07 12:17:51;;;;;;;1999.90;999.90;;;5.30;99.90;;;;;;5034356;28;20458;-70
2021/12/07 12:20:30;;;;;;;1999.90;999.90;;;5.30;99.90;;;;;;5029314;28;20495;-70
2021/12/07 12:23:02;;;;;;;1999.90;999.90;;;5.30;99.90;;;;;;5033937;28;20485;-70
2021/12/07 12:25:30;;;;;;;1999.90;999.90;;;5.20;99.90;;;;;;5032734;28;20486;-70
2021/12/07 12:27:59;;;;;;;1999.90;999.90;;;5.20;99.90;;;;;;5033195;28;20997;-70
2021/12/07 12:30:28;;;;;;;1999.90;999.90;;;5.20;99.90;;;;;;5033243;28;20869;-69
2021/12/07 12:32:58;;;;;;;1999.90;999.90;;;5.20;99.90;;;;;;5033478;28;20443;-70
2021/12/07 12:35:38;;;;;;;1999.90;999.90;;;5.20;99.90;;;;;;5032988;28;20451;-70
2021/12/07 12:38:15;;;;;;;1999.90;999.90;;;5.10;99.90;;;;;;5032725;28;20467;-70
2021/12/07 12:40:43;;;;;;;1999.90;999.90;;;5.10;99.90;;;;;;5032539;28;20540;-70
2021/12/07 12:43:09;;;;;;;1999.90;999.90;;;5.10;99.90;;;;;;5035192;28;21029;-70
2021/12/07 12:45:39;;;;;;;1999.90;999.90;;;5.10;99.90;;;;;;5027342;28;20452;-70
2021/12/07 12:48:08;;;;;;;1999.90;999.90;;;5.20;99.90;;;;;;5028614;28;20451;-70
2021/12/07 12:50:46;;;;;;;1999.90;999.90;;;5.30;99.90;;;;;;5035384;28;20490;-69
2021/12/07 12:53:17;;;;;;;1999.90;999.90;;;5.30;99.90;;;;;;5033749;28;20481;-69
2021/12/07 12:55:46;;;;;;;1999.90;999.90;;;5.20;99.90;;;;;;5015514;28;20456;-71
2021/12/07 12:58:18;;;;;;;1999.90;999.90;;;5.20;99.90;;;;;;5023879;28;20448;-69
2021/12/07 13:01:09;;;;;;;1999.90;999.90;;;5.20;99.90;;;;;;5044694;22;20503;-73
2021/12/07 13:04:04;;;;;;;1999.90;999.90;;;5.20;99.90;;;;;;5028463;28;20919;-72
2021/12/07 13:07:23;;;;;;;1999.90;999.90;;;5.30;99.90;;;;;;5023115;28;20901;-75
2021/12/07 13:09:54;;;;;;;1999.90;999.90;;;5.20;99.90;;;;;;5013070;28;21346;-70
2021/12/07 13:12:22;;;;;;;1999.90;999.90;;;5.20;99.90;;;;;;5029993;28;20443;-73
2021/12/07 13:14:56;;;;;;;1999.90;999.90;;;5.00;99.90;;;;;;5023753;28;20507;-74
2021/12/07 13:17:27;;;;;;;1999.90;999.90;;;5.00;99.90;;;;;;5033394;28;20451;-71
2021/12/07 13:20:22;;;;;;;1999.90;999.90;;;5.00;99.90;;;;;;5016798;28;20494;-75
2021/12/07 13:22:55;;;;;;;1999.90;999.90;;;5.00;99.90;;;;;;5017369;28;20474;-72
2021/12/07 13:25:24;;;;;;;1999.90;999.90;;;4.90;99.90;;;;;;5031998;28;20536;-70
2021/12/07 13:28:11;;;;;;;1999.90;999.90;;;5.00;99.90;;;;;;5034558;28;20497;-72
2021/12/07 13:30:51;;;;;;;1999.90;999.90;;;5.00;99.90;;;;;;5034641;28;20473;-73
2021/12/07 13:33:21;;;;;;;1999.90;999.90;;;5.00;99.90;;;;;;5037022;28;20424;-72
2021/12/07 13:35:49;;;;;;;1999.90;999.90;;;4.90;99.90;;;;;;5017612;28;20502;-72
2021/12/07 13:38:18;;;;;;;1999.90;999.90;;;4.90;99.90;;;;;;5016639;28;20452;-73